Airport View

Enter AWOS ICAO identifier for current METAR.

ex. KFNL

KHZE 192105Z AUTO 16013KT 10SM CLR 30/16 A2983 RMK AO2

19 Aug 2019 21:09

Frequency: 118.675

Phone: 701-748-2443

Other Area AWOS: KN60 - KD57 - KY19 - KBIS

TAF KBIS 191746Z 1918/2018 15009KT P6SM SKC FM200200 15009KT P6SM SCT250 FM200600 28005KT P6SM SCT250 FM201200 35011KT P6SM SCT150